createdAt,value
2022-08-11T00:01:22.014Z,18.80
2022-08-11T00:03:57.914Z,19.20
2022-08-11T00:06:31.776Z,19.60
2022-08-11T00:09:00.588Z,19.50
2022-08-11T00:11:51.791Z,19.40
2022-08-11T00:14:21.631Z,19.30
2022-08-11T00:17:09.193Z,19.00
2022-08-11T00:20:12.446Z,18.70
2022-08-11T00:22:31.365Z,18.50
2022-08-11T00:25:02.623Z,18.30
2022-08-11T00:27:34.805Z,18.50
2022-08-11T00:30:02.222Z,18.60
2022-08-11T00:32:30.058Z,18.70
2022-08-11T00:35:54.046Z,18.90
2022-08-11T00:37:53.799Z,18.40
2022-08-11T00:40:46.554Z,18.20
2022-08-11T00:43:20.032Z,18.60
2022-08-11T00:46:12.472Z,18.70
2022-08-11T00:49:07.030Z,18.30
2022-08-11T00:51:56.700Z,18.00
2022-08-11T00:54:57.069Z,18.10
2022-08-11T00:57:54.642Z,18.30
2022-08-11T01:00:23.507Z,18.30
2022-08-11T01:03:27.172Z,18.40
2022-08-11T01:06:03.741Z,18.50
2022-08-11T01:09:22.245Z,18.50
2022-08-11T01:12:15.352Z,18.40
2022-08-11T01:15:24.203Z,19.00
2022-08-11T01:18:00.105Z,18.80
2022-08-11T01:20:59.612Z,18.70
2022-08-11T01:23:47.805Z,18.60
2022-08-11T01:27:01.647Z,18.80
2022-08-11T01:30:05.951Z,18.60
2022-08-11T01:33:09.725Z,18.20
2022-08-11T01:36:10.960Z,18.10
2022-08-11T01:39:05.754Z,18.60
2022-08-11T01:42:15.686Z,18.60
2022-08-11T01:45:03.743Z,18.30
2022-08-11T01:48:04.168Z,18.10
2022-08-11T01:50:49.837Z,18.40
2022-08-11T01:53:51.562Z,18.00
2022-08-11T01:56:49.709Z,18.00
2022-08-11T01:59:49.380Z,18.40
2022-08-11T02:02:48.611Z,18.30
2022-08-11T02:05:30.810Z,18.60
2022-08-11T02:08:22.206Z,18.30
2022-08-11T02:11:35.768Z,18.30
2022-08-11T02:15:04.681Z,18.40
2022-08-11T02:17:58.062Z,18.40
2022-08-11T02:21:02.564Z,18.30
2022-08-11T02:24:05.239Z,18.60
2022-08-11T02:26:41.681Z,18.50
2022-08-11T02:29:18.159Z,18.40
2022-08-11T02:32:33.887Z,18.10
2022-08-11T02:35:09.752Z,17.80
2022-08-11T02:38:04.341Z,18.10
2022-08-11T02:40:44.859Z,18.20
2022-08-11T02:43:29.349Z,18.20
2022-08-11T02:46:19.967Z,17.90
2022-08-11T02:49:23.043Z,17.90
2022-08-11T02:52:14.491Z,18.00
2022-08-11T02:55:12.287Z,17.90
2022-08-11T02:58:26.859Z,17.70
2022-08-11T03:01:06.495Z,17.30
2022-08-11T03:03:51.314Z,16.70
2022-08-11T03:06:37.037Z,16.40
2022-08-11T03:09:18.692Z,16.60
2022-08-11T03:12:06.822Z,17.10
2022-08-11T03:15:14.082Z,17.30
2022-08-11T03:17:58.774Z,16.60
2022-08-11T03:21:11.334Z,16.30
2022-08-11T03:24:01.941Z,16.20
2022-08-11T03:26:53.975Z,16.30
2022-08-11T03:29:44.805Z,16.60
2022-08-11T03:32:37.931Z,16.40
2022-08-11T03:35:06.349Z,17.00
2022-08-11T03:38:02.699Z,16.70
2022-08-11T03:41:50.484Z,16.60
2022-08-11T03:44:20.158Z,16.10
2022-08-11T03:47:08.155Z,16.50
2022-08-11T03:49:56.884Z,16.90
2022-08-11T03:53:08.653Z,16.40
2022-08-11T03:55:47.481Z,16.00
2022-08-11T03:58:23.674Z,16.10
2022-08-11T04:01:37.998Z,15.90
2022-08-11T04:04:29.416Z,15.90
2022-08-11T04:07:34.013Z,15.80
2022-08-11T04:10:06.870Z,15.70
2022-08-11T04:12:47.137Z,15.90
2022-08-11T04:15:52.224Z,15.70
2022-08-11T04:18:25.068Z,15.90
2022-08-11T04:21:30.834Z,16.00
2022-08-11T04:24:38.121Z,15.90
2022-08-11T04:27:43.735Z,15.90
2022-08-11T04:30:51.489Z,15.80
2022-08-11T04:33:52.426Z,15.90
2022-08-11T04:37:16.651Z,16.10
2022-08-11T04:40:14.045Z,16.10
2022-08-11T04:43:18.129Z,16.30
2022-08-11T04:45:56.287Z,16.30
2022-08-11T04:49:12.026Z,16.10
2022-08-11T04:52:37.450Z,15.80
2022-08-11T04:55:36.138Z,15.90
2022-08-11T04:58:38.877Z,15.90
2022-08-11T05:01:38.664Z,16.00
2022-08-11T05:04:46.098Z,15.90
2022-08-11T05:07:34.563Z,15.80
2022-08-11T05:10:14.575Z,15.90
2022-08-11T05:13:22.562Z,16.10
2022-08-11T05:16:16.741Z,16.20
2022-08-11T05:19:11.014Z,16.20
2022-08-11T05:22:00.110Z,16.70
2022-08-11T05:24:56.101Z,16.80
2022-08-11T05:27:50.222Z,17.10
2022-08-11T05:30:36.378Z,17.10
2022-08-11T05:33:26.593Z,17.10
2022-08-11T05:36:07.335Z,17.40
2022-08-11T05:38:54.724Z,17.40
2022-08-11T05:41:45.679Z,17.40
2022-08-11T05:44:37.720Z,17.10
2022-08-11T05:47:23.493Z,17.10
2022-08-11T05:50:13.706Z,17.20
2022-08-11T05:53:04.390Z,17.30
2022-08-11T05:56:02.072Z,17.40
2022-08-11T05:58:42.422Z,17.90
2022-08-11T06:01:12.020Z,17.80
2022-08-11T06:03:59.645Z,18.00
2022-08-11T06:06:28.005Z,17.90
2022-08-11T06:08:59.550Z,18.00
2022-08-11T06:11:43.633Z,18.20
2022-08-11T06:14:12.281Z,18.20
2022-08-11T06:16:41.929Z,18.30
2022-08-11T06:19:09.623Z,18.30
2022-08-11T06:21:36.758Z,18.50
2022-08-11T06:24:21.868Z,18.50
2022-08-11T06:29:50.166Z,18.60
2022-08-11T06:32:32.545Z,18.80
2022-08-11T06:35:19.385Z,18.80
2022-08-11T06:38:05.457Z,18.70
2022-08-11T06:41:12.648Z,19.00
2022-08-11T06:44:14.888Z,19.20
2022-08-11T06:46:45.818Z,19.30
2022-08-11T06:49:33.489Z,19.60
2022-08-11T06:52:04.507Z,19.70
2022-08-11T06:54:35.524Z,19.60
2022-08-11T06:57:31.521Z,19.70
2022-08-11T07:00:19.095Z,19.70
2022-08-11T07:03:13.359Z,19.90
2022-08-11T07:05:57.091Z,20.00
2022-08-11T07:09:09.325Z,20.10
2022-08-11T07:11:57.690Z,20.40
2022-08-11T07:14:46.845Z,20.40
2022-08-11T07:17:17.917Z,20.50
2022-08-11T07:20:10.159Z,20.60
2022-08-11T07:22:56.212Z,20.70
2022-08-11T07:25:43.384Z,20.80
2022-08-11T07:28:40.101Z,20.90
2022-08-11T07:31:13.951Z,21.20
2022-08-11T07:34:08.332Z,21.20
2022-08-11T07:36:45.960Z,21.20
2022-08-11T07:39:24.616Z,21.40
2022-08-11T07:41:53.511Z,21.50
2022-08-11T07:44:21.953Z,21.60
2022-08-11T07:47:09.324Z,21.70
2022-08-11T07:49:57.024Z,21.60
2022-08-11T07:52:29.575Z,21.70
2022-08-11T07:55:00.106Z,21.80
2022-08-11T07:58:15.017Z,22.10
2022-08-11T08:01:01.458Z,22.20
2022-08-11T08:03:54.200Z,22.50
2022-08-11T08:06:41.260Z,22.70
2022-08-11T08:09:28.383Z,22.60
2022-08-11T08:12:15.151Z,22.50
2022-08-11T08:15:01.377Z,22.80
2022-08-11T08:18:09.905Z,22.90
2022-08-11T08:20:38.471Z,23.20
2022-08-11T08:23:06.342Z,23.10
2022-08-11T08:25:35.239Z,23.70
2022-08-11T08:28:06.062Z,23.70
2022-08-11T08:30:48.306Z,23.70
2022-08-11T08:33:16.849Z,23.80
2022-08-11T08:35:56.105Z,24.10
2022-08-11T08:38:24.074Z,23.90
2022-08-11T08:40:56.045Z,24.20
2022-08-11T08:43:24.334Z,24.00
2022-08-11T08:45:55.655Z,24.30
2022-08-11T08:48:25.828Z,24.50
2022-08-11T08:51:22.295Z,24.50
2022-08-11T08:53:53.598Z,24.60
2022-08-11T08:56:28.279Z,25.00
2022-08-11T08:58:57.037Z,25.20
2022-08-11T09:01:25.758Z,25.20
2022-08-11T09:04:04.695Z,25.00
2022-08-11T09:06:40.488Z,25.20
2022-08-11T09:09:12.351Z,25.40
2022-08-11T09:11:50.891Z,26.00
2022-08-11T09:14:18.835Z,26.00
2022-08-11T09:16:47.494Z,26.10
2022-08-11T09:19:17.546Z,26.20
2022-08-11T09:22:10.708Z,25.80
2022-08-11T09:24:58.128Z,26.10
2022-08-11T09:27:26.163Z,26.40
2022-08-11T09:29:53.407Z,26.80
2022-08-11T09:32:22.069Z,26.70
2022-08-11T09:34:52.145Z,26.80
2022-08-11T09:37:54.999Z,26.80
2022-08-11T09:40:30.521Z,26.90
2022-08-11T09:43:22.686Z,26.90
2022-08-11T09:45:52.224Z,27.40
2022-08-11T09:48:20.900Z,27.30
2022-08-11T09:50:55.521Z,27.20
2022-08-11T09:53:36.126Z,27.40
2022-08-11T09:56:28.391Z,27.30
2022-08-11T09:58:55.369Z,27.30
2022-08-11T10:01:27.650Z,27.40
2022-08-11T10:04:24.915Z,27.60
2022-08-11T10:07:05.329Z,27.80
2022-08-11T10:09:56.206Z,27.80
2022-08-11T10:12:36.073Z,27.80
2022-08-11T10:15:26.035Z,27.90
2022-08-11T10:18:16.169Z,28.10
2022-08-11T10:20:45.054Z,28.10
2022-08-11T10:23:31.984Z,28.10
2022-08-11T10:26:17.583Z,28.00
2022-08-11T10:29:11.605Z,28.20
2022-08-11T10:31:57.264Z,28.60
2022-08-11T10:34:29.188Z,28.30
2022-08-11T10:36:57.518Z,28.20
2022-08-11T10:39:26.892Z,28.50
2022-08-11T10:42:25.495Z,28.60
2022-08-11T10:44:58.956Z,28.60
2022-08-11T10:47:35.233Z,28.60
2022-08-11T10:50:32.168Z,28.70
2022-08-11T10:53:19.603Z,28.70
2022-08-11T10:56:06.336Z,28.90
2022-08-11T10:58:52.153Z,29.00
2022-08-11T11:01:24.557Z,29.20
2022-08-11T11:03:55.288Z,29.10
2022-08-11T11:06:28.411Z,29.00
2022-08-11T11:09:06.973Z,29.20
2022-08-11T11:11:57.793Z,29.40
2022-08-11T11:14:58.138Z,29.30
2022-08-11T11:17:54.122Z,29.40
2022-08-11T11:20:35.803Z,29.10
2022-08-11T11:23:19.998Z,29.10
2022-08-11T11:26:10.724Z,29.30
2022-08-11T11:29:12.532Z,29.50
2022-08-11T11:32:01.072Z,29.80
2022-08-11T11:34:58.257Z,29.90
2022-08-11T11:37:25.766Z,29.90
2022-08-11T11:39:55.073Z,29.80
2022-08-11T11:42:22.913Z,29.80
2022-08-11T11:44:54.149Z,29.80
2022-08-11T11:47:23.671Z,29.80
2022-08-11T11:49:50.730Z,29.80
2022-08-11T11:52:21.067Z,30.10
2022-08-11T11:54:50.339Z,30.00
2022-08-11T11:57:37.002Z,30.10
2022-08-11T12:00:33.241Z,30.10
2022-08-11T12:03:03.703Z,30.00
2022-08-11T12:05:33.616Z,30.30
2022-08-11T12:08:16.361Z,30.50
2022-08-11T12:10:50.752Z,30.50
2022-08-11T12:13:36.747Z,30.40
2022-08-11T12:16:31.803Z,30.30
2022-08-11T12:18:57.022Z,30.30
2022-08-11T12:21:24.996Z,30.40
2022-08-11T12:24:10.927Z,30.60
2022-08-11T12:27:15.925Z,30.70
2022-08-11T12:29:55.031Z,30.70
2022-08-11T12:32:26.048Z,30.70
2022-08-11T12:34:53.689Z,30.80
2022-08-11T12:37:24.481Z,30.90
2022-08-11T12:40:43.782Z,30.50
2022-08-11T12:43:36.863Z,30.80
2022-08-11T12:46:19.603Z,31.10
2022-08-11T12:49:07.562Z,31.10
2022-08-11T12:52:12.522Z,31.00
2022-08-11T12:54:46.484Z,30.10
2022-08-11T12:57:37.172Z,30.40
2022-08-11T13:00:25.445Z,30.70
2022-08-11T13:03:12.355Z,30.80
2022-08-11T13:05:44.373Z,31.00
2022-08-11T13:08:15.392Z,31.10
2022-08-11T13:11:02.436Z,31.00
2022-08-11T13:13:53.438Z,31.30
2022-08-11T13:16:17.876Z,31.50
2022-08-11T13:18:45.210Z,31.80
2022-08-11T13:21:20.006Z,32.10
2022-08-11T13:24:01.692Z,32.00
2022-08-11T13:26:48.471Z,31.70
2022-08-11T13:29:28.020Z,32.00
2022-08-11T13:31:58.247Z,31.60
2022-08-11T13:34:26.968Z,31.70
2022-08-11T13:36:57.104Z,31.30
2022-08-11T13:39:26.947Z,31.60
2022-08-11T13:41:56.860Z,32.10
2022-08-11T13:44:27.200Z,31.30
2022-08-11T13:47:01.649Z,31.60
2022-08-11T13:49:30.858Z,31.80
2022-08-11T13:51:58.546Z,31.70
2022-08-11T13:54:31.594Z,32.00
2022-08-11T13:57:08.011Z,32.00
2022-08-11T13:59:45.309Z,32.10
2022-08-11T14:02:29.594Z,32.00
2022-08-11T14:05:10.002Z,32.00
2022-08-11T14:07:39.944Z,31.90
2022-08-11T14:10:08.681Z,31.60
2022-08-11T14:12:56.739Z,31.90
2022-08-11T14:15:28.902Z,31.50
2022-08-11T14:18:01.698Z,30.90
2022-08-11T14:20:50.871Z,31.10
2022-08-11T14:23:19.411Z,31.50
2022-08-11T14:26:05.673Z,31.80
2022-08-11T14:28:40.309Z,32.00
2022-08-11T14:31:12.313Z,32.30
2022-08-11T14:34:00.322Z,31.30
2022-08-11T14:36:31.101Z,30.70
2022-08-11T14:38:58.213Z,31.10
2022-08-11T14:42:11.715Z,31.50
2022-08-11T14:44:53.105Z,31.50
2022-08-11T14:47:24.082Z,31.60
2022-08-11T14:50:09.968Z,31.70
2022-08-11T14:52:45.689Z,31.90
2022-08-11T14:55:32.525Z,32.10
2022-08-11T14:58:01.868Z,32.10
2022-08-11T15:00:29.831Z,31.80
2022-08-11T15:03:13.678Z,31.60
2022-08-11T15:06:02.295Z,31.90
2022-08-11T15:08:55.100Z,32.20
2022-08-11T15:11:50.098Z,31.90
2022-08-11T15:14:38.699Z,32.00
2022-08-11T15:17:10.202Z,31.80
2022-08-11T15:20:04.146Z,31.90
2022-08-11T15:22:49.651Z,32.30
2022-08-11T15:25:16.465Z,32.70
2022-08-11T15:28:06.785Z,32.50
2022-08-11T15:30:53.960Z,32.50
2022-08-11T15:33:40.164Z,32.10
2022-08-11T15:36:28.425Z,32.70
2022-08-11T15:39:05.132Z,32.70
2022-08-11T15:42:00.543Z,32.20
2022-08-11T15:45:05.495Z,31.90
2022-08-11T15:47:45.993Z,31.80
2022-08-11T15:50:19.661Z,32.00
2022-08-11T15:52:56.171Z,31.50
2022-08-11T15:55:24.368Z,31.40
2022-08-11T15:58:12.271Z,31.50
2022-08-11T16:01:04.271Z,31.50
2022-08-11T16:04:08.981Z,31.60
2022-08-11T16:06:44.093Z,31.80
2022-08-11T16:09:18.529Z,31.80
2022-08-11T16:11:47.017Z,31.50
2022-08-11T16:14:35.769Z,31.50
2022-08-11T16:17:05.753Z,31.50
2022-08-11T16:19:35.671Z,31.50
2022-08-11T16:22:09.050Z,31.40
2022-08-11T16:27:01.743Z,31.40
2022-08-11T16:27:27.908Z,31.50
2022-08-11T16:29:56.034Z,31.50
2022-08-11T16:32:24.281Z,31.30
2022-08-11T16:35:34.771Z,31.20
2022-08-11T16:38:22.800Z,30.90
2022-08-11T16:40:52.437Z,30.80
2022-08-11T16:43:40.649Z,30.70
2022-08-11T16:46:37.872Z,30.70
2022-08-11T16:49:21.094Z,30.70
2022-08-11T16:51:48.296Z,30.60
2022-08-11T16:54:15.171Z,31.00
2022-08-11T16:56:50.841Z,31.00
2022-08-11T16:59:38.488Z,30.60
2022-08-11T17:02:43.952Z,30.60
2022-08-11T17:05:38.485Z,30.70
2022-08-11T17:08:57.468Z,30.70
2022-08-11T17:11:46.015Z,30.50
2022-08-11T17:14:17.841Z,30.40
2022-08-11T17:17:10.017Z,30.10
2022-08-11T17:20:42.046Z,30.10
2022-08-11T17:22:49.154Z,30.00
2022-08-11T17:25:17.292Z,30.00
2022-08-11T17:27:46.567Z,30.00
2022-08-11T17:30:14.867Z,29.90
2022-08-11T17:33:05.580Z,29.90
2022-08-11T17:35:41.819Z,29.90
2022-08-11T17:38:21.655Z,29.90
2022-08-11T17:41:10.532Z,29.80
2022-08-11T17:44:11.280Z,29.70
2022-08-11T17:47:03.582Z,29.50
2022-08-11T17:49:37.663Z,29.40
2022-08-11T17:52:24.912Z,29.20
2022-08-11T17:55:13.311Z,29.10
2022-08-11T17:57:59.940Z,28.90
2022-08-11T18:00:26.747Z,28.90
2022-08-11T18:03:13.959Z,28.80
2022-08-11T18:05:44.510Z,28.70
2022-08-11T18:08:31.728Z,28.70
2022-08-11T18:12:06.099Z,28.60
2022-08-11T18:14:27.705Z,28.40
2022-08-11T18:17:13.209Z,28.30
2022-08-11T18:19:58.718Z,28.20
2022-08-11T18:22:49.925Z,28.10
2022-08-11T18:26:07.784Z,28.10
2022-08-11T18:29:04.145Z,28.10
2022-08-11T18:31:53.674Z,27.90
2022-08-11T18:34:49.088Z,27.80
2022-08-11T18:37:38.593Z,27.60
2022-08-11T18:40:32.682Z,27.40
2022-08-11T18:43:27.136Z,27.40
2022-08-11T18:46:19.543Z,27.30
2022-08-11T18:49:15.808Z,27.10
2022-08-11T18:52:05.309Z,27.00
2022-08-11T18:54:53.435Z,26.90
2022-08-11T18:57:47.170Z,26.70
2022-08-11T19:00:36.065Z,26.60
2022-08-11T19:03:24.039Z,26.50
2022-08-11T19:06:39.047Z,26.40
2022-08-11T19:09:20.329Z,26.40
2022-08-11T19:12:08.358Z,26.40
2022-08-11T19:14:55.731Z,26.40
2022-08-11T19:17:45.965Z,26.30
2022-08-11T19:20:38.053Z,26.20
2022-08-11T19:23:26.169Z,26.20
2022-08-11T19:26:12.344Z,26.10
2022-08-11T19:29:00.092Z,26.00
2022-08-11T19:31:46.741Z,25.90
2022-08-11T19:34:36.257Z,25.70
2022-08-11T19:37:25.276Z,25.40
2022-08-11T19:40:21.263Z,25.10
2022-08-11T19:43:14.798Z,25.10
2022-08-11T19:46:11.799Z,24.80
2022-08-11T19:48:58.378Z,24.80
2022-08-11T19:51:43.989Z,24.70
2022-08-11T19:54:30.252Z,24.50
2022-08-11T19:57:16.317Z,24.60
2022-08-11T20:00:02.811Z,24.70
2022-08-11T20:02:48.015Z,24.60
2022-08-11T20:05:33.594Z,24.60
2022-08-11T20:08:19.180Z,24.40
2022-08-11T20:11:06.933Z,24.40
2022-08-11T20:13:54.194Z,24.30
2022-08-11T20:16:42.489Z,24.20
2022-08-11T20:19:55.406Z,24.00
2022-08-11T20:22:35.597Z,23.90
2022-08-11T20:25:24.159Z,23.80
2022-08-11T20:28:11.863Z,23.70
2022-08-11T20:30:59.179Z,23.80
2022-08-11T20:33:44.506Z,23.70
2022-08-11T20:36:31.831Z,23.60
2022-08-11T20:39:19.603Z,23.90
2022-08-11T20:42:07.011Z,23.80
2022-08-11T20:44:55.692Z,23.70
2022-08-11T20:47:58.863Z,23.60
2022-08-11T20:50:46.643Z,23.40
2022-08-11T20:53:35.685Z,23.40
2022-08-11T20:56:28.497Z,23.40
2022-08-11T20:59:18.119Z,23.20
2022-08-11T21:02:10.058Z,23.10
2022-08-11T21:04:57.945Z,23.00
2022-08-11T21:07:56.653Z,22.80
2022-08-11T21:10:50.579Z,22.80
2022-08-11T21:13:42.947Z,22.70
2022-08-11T21:16:38.259Z,22.60
2022-08-11T21:19:59.629Z,22.60
2022-08-11T21:22:43.348Z,22.20
2022-08-11T21:25:47.386Z,22.30
2022-08-11T21:28:34.969Z,22.40
2022-08-11T21:31:23.030Z,22.20
2022-08-11T21:34:09.446Z,22.20
2022-08-11T21:36:55.553Z,22.10
2022-08-11T21:39:42.529Z,22.20
2022-08-11T21:42:30.562Z,22.00
2022-08-11T21:45:17.440Z,22.00
2022-08-11T21:48:03.009Z,22.20
2022-08-11T21:50:48.719Z,22.00
2022-08-11T21:53:34.975Z,21.90
2022-08-11T21:56:22.023Z,21.80
2022-08-11T21:59:13.011Z,21.90
2022-08-11T22:01:58.948Z,21.70
2022-08-11T22:04:44.710Z,21.60
2022-08-11T22:07:30.725Z,21.50
2022-08-11T22:10:41.516Z,21.40
2022-08-11T22:13:25.465Z,21.10
2022-08-11T22:16:10.938Z,21.00
2022-08-11T22:18:57.551Z,21.10
2022-08-11T22:22:01.106Z,21.10
2022-08-11T22:24:50.188Z,21.10
2022-08-11T22:27:35.590Z,21.00
2022-08-11T22:30:21.093Z,21.40
2022-08-11T22:33:07.068Z,21.70
2022-08-11T22:35:54.133Z,21.70
2022-08-11T22:38:40.223Z,21.80
2022-08-11T22:41:25.806Z,21.30
2022-08-11T22:44:11.144Z,21.50
2022-08-11T22:46:56.698Z,21.50
2022-08-11T22:49:58.100Z,21.10
2022-08-11T22:52:44.821Z,20.80
2022-08-11T22:55:30.927Z,20.50
2022-08-11T22:58:16.403Z,20.70
2022-08-11T23:01:02.742Z,20.90
2022-08-11T23:03:49.168Z,20.90
2022-08-11T23:06:34.669Z,20.60
2022-08-11T23:09:21.291Z,20.70
2022-08-11T23:12:10.093Z,20.50
2022-08-11T23:14:57.950Z,20.30
2022-08-11T23:17:45.091Z,20.40
2022-08-11T23:20:41.271Z,20.60
2022-08-11T23:23:30.630Z,20.70
2022-08-11T23:26:17.628Z,20.60
2022-08-11T23:29:06.196Z,20.40
2022-08-11T23:31:54.114Z,20.50
2022-08-11T23:35:04.848Z,20.90
2022-08-11T23:37:49.344Z,20.60
2022-08-11T23:40:34.745Z,20.90
2022-08-11T23:43:20.549Z,20.70
2022-08-11T23:46:05.909Z,20.40
2022-08-11T23:48:52.332Z,20.10
2022-08-11T23:51:41.260Z,20.00
2022-08-11T23:54:28.319Z,19.90
2022-08-11T23:57:14.514Z,19.80
2022-08-11T23:59:59.884Z,19.60
